Birmingham, AL (35298)

12:52 PM CDT on October 25, 2014 (GMT -0500)
UAB HHB | Change Station
CLOSE
Current Station
Personal Weather Station
Location: Birmingham, AL
Elevation: 617 ft
Nearby Weather Stations

Elev 617 ft 33.50 °N, 86.81 °W | Updated 51 seconds ago

Clear
Clear
71.2 °F
Feels Like 76 °F
N
0.0
Wind Variable Wind from SSE
Gusts 11.0 mph

Today
High -- | Low -- °F
--% Chance of Precip.
Yesterday
High -- | Low -- °F
Precip. -- in
6:59 AM 6:02 PM
Waxing Crescent, 4% visible
Pressure 30.13 in
Visibility 10.0 miles
Clouds Clear
Heat Index 76 °F
Dew Point 55 °F
Humidity 57%
Rainfall 0.00 in
Snow Depth Not available.
UV 6 out of 12
Pollen 2.40 out of 12
Ozone Good
PM2.5 Moderate
Flu Activity Sporadic
METAR KBHM 251653Z 32008KT 10SM CLR 22/11 A3014 RMK AO2 SLP201 T02170106

More Conditions Fewer Conditions

Pressure 30.13 in
Visibility 10.0 miles
Clouds Clear
Heat Index 76 °F
Dew Point 55 °F
Humidity 57%
Rainfall 0.00 in
Snow Depth Not available.
UV 6 out of 12
Pollen 2.40 out of 12
Ozone Good
PM2.5 Moderate
Flu Activity Sporadic
METAR KBHM 251653Z 32008KT 10SM CLR 22/11 A3014 RMK AO2 SLP201 T02170106

More Conditions Fewer Conditions

10-Day Weather Forecast

Almanac

Astronomy

Oct. 25, 2014 Rise Set
Actual Time 6:59 AM CDT 6:02 PM CDT
Civil Twilight 6:34 AM CDT 6:27 PM CDT
Nautical Twilight 6:05 AM CDT 6:56 PM CDT
Astronomical Twilight 5:36 AM CDT 7:25 PM CDT
Moon 8:34 AM CDT 7:28 PM CDT
Length of Visible Light 11h 52m
Length of Day
11h 02m
Tomorrow will be 1m 54s shorter.
Waxing Crescent, 4% of the Moon is Illuminated
Today
Waxing Crescent
Oct 30
First Quarter
Nov 6
Full
Nov 14
Last Quarter
Nov 22
New

Today's Extremes

State Highs State Lows

Community

WunderPhotos

Upload Photos

1,764,919 photos uploaded!

Nearby

Air Quality

  Air Quality AQ Index Pollutant
Yesterday Good
PM10
Yesterday Good
OZONE
Current Moderate
PM2.5
Current Good
OZONE
Saturday Moderate
PM2.5
Sunday Moderate
PM2.5
Monday Moderate
PM2.5

Snow Depth

Station Depth Elevation
No new snow has been reported.

Earthquake Activity

City Distance Mag. Time & Date
No recent earthquake activity has been reported nearby.
Minimum magnitude displayed is 2.5.

Coastal Water Temperatures

Place Temperature
No Stations Reporting

Nearby Weather Stations